Time;durP1;ratioP1;P1;durP2;ratioP2;P2;SDS_P1;SDS_P2;PMS_P1;PMS_P2;Temp;Humidity;BMP_temperature;BMP_pressure;BME280_temperature;BME280_humidity;BME280_pressure;Samples;Min_cycle;Max_cycle;Signal;HPM_P1;HPM_P2
2022/04/16 00:00:50;;;;;;;39.67;24.23;;;6.00;99.90;;;;;;5032628;28;20026;-77
2022/04/16 00:03:16;;;;;;;42.17;24.90;;;6.00;99.90;;;;;;5033646;28;20195;-79
2022/04/16 00:05:42;;;;;;;37.17;24.38;;;6.00;99.90;;;;;;5036168;28;20048;-78
2022/04/16 00:08:08;;;;;;;45.53;26.40;;;6.00;99.90;;;;;;5033295;28;20078;-81
2022/04/16 00:10:39;;;;;;;40.92;23.98;;;6.10;99.90;;;;;;5032748;28;20081;-79
2022/04/16 00:13:05;;;;;;;48.17;25.73;;;6.00;99.90;;;;;;5032925;28;20022;-79
2022/04/16 00:15:31;;;;;;;35.58;25.20;;;6.00;99.90;;;;;;5033191;28;20444;-78
2022/04/16 00:17:57;;;;;;;41.28;24.85;;;6.00;99.90;;;;;;5045393;28;20010;-78
2022/04/16 00:20:25;;;;;;;39.97;24.40;;;6.00;99.90;;;;;;5035796;28;20104;-79
2022/04/16 00:22:51;;;;;;;44.60;24.60;;;6.00;99.90;;;;;;5032602;28;20026;-81
2022/04/16 00:25:18;;;;;;;39.88;24.40;;;6.00;99.90;;;;;;5033312;28;20026;-78
2022/04/16 00:27:44;;;;;;;44.13;26.40;;;6.10;99.90;;;;;;5033033;28;20029;-78
2022/04/16 00:30:10;;;;;;;41.97;25.20;;;6.10;99.90;;;;;;5033155;28;20372;-81
2022/04/16 00:32:35;;;;;;;41.65;25.83;;;6.20;99.90;;;;;;5033226;28;20021;-78
2022/04/16 00:35:02;;;;;;;39.70;23.75;;;6.20;99.90;;;;;;5033101;28;20037;-77
2022/04/16 00:37:28;;;;;;;46.05;25.50;;;6.30;99.90;;;;;;5034100;28;20026;-78
2022/04/16 00:39:53;;;;;;;41.70;25.67;;;6.30;99.90;;;;;;5034318;28;20025;-77
2022/04/16 00:42:19;;;;;;;39.22;24.92;;;6.30;99.90;;;;;;5034248;28;20477;-78
2022/04/16 00:44:44;;;;;;;40.33;25.17;;;6.30;99.90;;;;;;5028528;28;20044;-79
2022/04/16 00:47:12;;;;;;;46.88;26.40;;;6.30;99.90;;;;;;5015001;28;20077;-79
2022/04/16 00:49:37;;;;;;;35.80;23.42;;;6.30;99.90;;;;;;5013802;28;20086;-79
2022/04/16 00:52:04;;;;;;;37.20;24.92;;;6.30;99.90;;;;;;5014968;28;20512;-82
2022/04/16 00:54:31;;;;;;;44.05;24.60;;;6.30;99.90;;;;;;5012661;28;20025;-81
2022/04/16 00:56:57;;;;;;;34.90;22.40;;;6.30;99.90;;;;;;5014672;28;20022;-81
2022/04/16 00:59:23;;;;;;;38.25;23.80;;;6.20;99.90;;;;;;5013257;28;20124;-79
2022/04/16 01:01:48;;;;;;;34.17;23.25;;;6.10;99.90;;;;;;5014848;28;20033;-81
2022/04/16 01:04:14;;;;;;;31.90;22.05;;;6.10;99.90;;;;;;5013829;28;20058;-78
2022/04/16 01:06:42;;;;;;;37.85;24.20;;;6.00;99.90;;;;;;5012027;28;20034;-78
2022/04/16 01:09:08;;;;;;;41.40;24.00;;;6.00;99.90;;;;;;5010808;28;20350;-79
2022/04/16 01:11:34;;;;;;;35.30;22.75;;;6.00;99.90;;;;;;5012698;28;20022;-79
2022/04/16 01:14:01;;;;;;;33.60;22.35;;;6.00;99.90;;;;;;5011296;28;20540;-81
2022/04/16 01:16:30;;;;;;;40.72;25.17;;;6.00;99.90;;;;;;5012524;28;20392;-79
2022/04/16 01:18:55;;;;;;;41.38;26.02;;;5.90;99.90;;;;;;5014938;28;20046;-78
2022/04/16 01:21:22;;;;;;;42.75;26.48;;;6.00;99.90;;;;;;5013934;28;20022;-78
2022/04/16 01:23:48;;;;;;;36.13;24.65;;;6.00;99.90;;;;;;5015074;28;20026;-78
2022/04/16 01:26:14;;;;;;;42.72;25.45;;;5.90;99.90;;;;;;5014378;28;20030;-79
2022/04/16 01:28:43;;;;;;;39.55;25.10;;;5.90;99.90;;;;;;5010513;28;20037;-79
2022/04/16 01:31:09;;;;;;;41.35;25.25;;;5.90;99.90;;;;;;5012090;28;20417;-78
2022/04/16 01:33:35;;;;;;;39.60;25.40;;;5.90;99.90;;;;;;5014643;28;20018;-78
2022/04/16 01:36:00;;;;;;;41.92;26.50;;;5.90;99.90;;;;;;5016305;28;20164;-79
2022/04/16 01:38:26;;;;;;;40.88;25.80;;;5.80;99.90;;;;;;5014410;28;20033;-79
2022/04/16 01:40:55;;;;;;;44.03;25.67;;;5.80;99.90;;;;;;5015059;28;20040;-77
2022/04/16 01:43:21;;;;;;;42.80;26.33;;;5.80;99.90;;;;;;5020077;28;20036;-78
2022/04/16 01:45:48;;;;;;;44.85;28.02;;;5.70;99.90;;;;;;5046420;28;20009;-77
2022/04/16 01:48:13;;;;;;;42.60;26.75;;;5.80;99.90;;;;;;5056622;28;20018;-76
2022/04/16 01:50:40;;;;;;;46.58;27.50;;;5.70;99.90;;;;;;5054751;28;20021;-80
2022/04/16 01:53:06;;;;;;;47.22;28.33;;;5.70;99.90;;;;;;5038856;28;20033;-78
2022/04/16 01:55:31;;;;;;;44.40;27.75;;;5.70;99.90;;;;;;5034552;28;20369;-80
2022/04/16 01:57:58;;;;;;;43.13;27.73;;;5.70;99.90;;;;;;5034131;28;20057;-77
2022/04/16 02:00:24;;;;;;;46.13;29.27;;;5.70;99.90;;;;;;5032767;28;20021;-76
2022/04/16 02:02:50;;;;;;;50.90;30.67;;;5.70;99.90;;;;;;5033549;28;20095;-78
2022/04/16 02:05:16;;;;;;;48.15;30.63;;;5.70;99.90;;;;;;5032869;28;20029;-77
2022/04/16 02:07:42;;;;;;;49.30;28.88;;;5.70;99.90;;;;;;5034904;28;20048;-78
2022/04/16 02:10:08;;;;;;;52.83;30.70;;;5.70;99.90;;;;;;5037431;28;20021;-79
2022/04/16 02:12:37;;;;;;;41.20;28.90;;;5.80;99.90;;;;;;5040351;28;20481;-81
2022/04/16 02:15:05;;;;;;;51.42;30.10;;;5.80;99.90;;;;;;5037386;28;20056;-78
2022/04/16 02:17:32;;;;;;;46.28;29.55;;;5.90;99.90;;;;;;5037817;28;20384;-79
2022/04/16 02:19:58;;;;;;;46.58;29.48;;;5.90;99.90;;;;;;5036172;28;20025;-79
2022/04/16 02:22:24;;;;;;;47.72;30.00;;;6.00;99.90;;;;;;5038595;28;20025;-77
2022/04/16 02:24:49;;;;;;;46.30;30.52;;;6.00;99.90;;;;;;5036048;28;20344;-78
2022/04/16 02:27:15;;;;;;;43.53;29.80;;;6.00;99.90;;;;;;5036466;28;20021;-76
2022/04/16 02:29:42;;;;;;;53.15;29.10;;;6.00;99.90;;;;;;5038511;28;20034;-79
2022/04/16 02:32:08;;;;;;;50.42;30.20;;;6.00;99.90;;;;;;5036497;28;20013;-80
2022/04/16 02:34:34;;;;;;;48.05;29.60;;;6.00;99.90;;;;;;5034633;28;20139;-79
2022/04/16 02:36:59;;;;;;;50.63;31.45;;;6.00;99.90;;;;;;5037280;28;20112;-78
2022/04/16 02:39:25;;;;;;;50.35;31.58;;;6.00;99.90;;;;;;5036436;28;20069;-81
2022/04/16 02:41:51;;;;;;;54.22;30.23;;;6.10;99.90;;;;;;5037441;28;20045;-79
2022/04/16 02:47:08;;;;;;;49.08;28.55;;;6.10;99.90;;;;;;5015854;28;20087;-78
2022/04/16 02:49:36;;;;;;;45.45;28.83;;;6.00;99.90;;;;;;5016210;28;20080;-77
2022/04/16 02:52:01;;;;;;;44.58;27.08;;;6.00;99.90;;;;;;5015947;28;20426;-78
2022/04/16 02:54:27;;;;;;;45.10;28.00;;;6.00;99.90;;;;;;5018527;28;20034;-79
2022/04/16 02:56:55;;;;;;;48.53;30.80;;;5.90;99.90;;;;;;5016165;28;20025;-78
2022/04/16 02:59:21;;;;;;;42.90;28.25;;;5.80;99.90;;;;;;5014485;28;20028;-78
2022/04/16 03:01:47;;;;;;;44.10;28.42;;;5.70;99.90;;;;;;5015207;28;20124;-80
2022/04/16 03:04:12;;;;;;;43.72;28.13;;;5.50;99.90;;;;;;5013814;28;20431;-79
2022/04/16 03:06:38;;;;;;;45.20;28.90;;;5.40;99.90;;;;;;5013555;28;20454;-79
2022/04/16 03:09:03;;;;;;;42.22;28.48;;;5.30;99.90;;;;;;5013407;28;20103;-80
2022/04/16 03:11:29;;;;;;;43.80;27.85;;;5.20;99.90;;;;;;5014424;28;20054;-80
2022/04/16 03:13:55;;;;;;;46.10;27.58;;;5.10;99.90;;;;;;5015296;28;20105;-79
2022/04/16 03:19:05;;;;;;;41.22;26.48;;;5.10;99.90;;;;;;5015066;28;20492;-81
2022/04/16 03:21:30;;;;;;;41.50;27.45;;;5.10;99.90;;;;;;5016016;28;20497;-80
2022/04/16 03:23:56;;;;;;;43.95;25.98;;;5.20;99.90;;;;;;5014275;28;20030;-80
2022/04/16 03:26:21;;;;;;;46.17;27.25;;;5.30;99.90;;;;;;5013554;28;20022;-80
2022/04/16 03:28:47;;;;;;;44.60;28.48;;;5.40;99.90;;;;;;5013162;28;20075;-77
2022/04/16 03:31:12;;;;;;;42.92;26.05;;;5.40;99.90;;;;;;5013638;28;20118;-78
2022/04/16 03:33:38;;;;;;;44.45;27.70;;;5.50;99.90;;;;;;5013491;28;20029;-78
2022/04/16 03:36:05;;;;;;;41.95;25.60;;;5.60;99.90;;;;;;5012516;28;20486;-79
2022/04/16 03:38:31;;;;;;;43.05;27.90;;;5.60;99.90;;;;;;5014192;28;20025;-78
2022/04/16 03:40:57;;;;;;;45.20;26.70;;;5.60;99.90;;;;;;5014004;28;20030;-77
2022/04/16 03:43:26;;;;;;;42.67;25.05;;;5.50;99.90;;;;;;5012839;28;20037;-76
2022/04/16 03:45:51;;;;;;;39.15;23.73;;;5.40;99.90;;;;;;5028408;28;20056;-78
2022/04/16 03:48:17;;;;;;;31.55;22.63;;;5.30;99.90;;;;;;5033439;28;20025;-79
2022/04/16 03:50:42;;;;;;;32.17;21.45;;;5.10;99.90;;;;;;5033151;28;20025;-78
2022/04/16 03:53:08;;;;;;;40.13;23.52;;;4.90;99.90;;;;;;5031738;28;20072;-79
2022/04/16 04:01:05;;;;;;;30.50;20.42;;;4.60;99.90;;;;;;5033201;28;20059;-79
2022/04/16 04:03:31;;;;;;;34.50;21.92;;;4.40;99.90;;;;;;5031781;28;20026;-78
2022/04/16 04:05:58;;;;;;;30.95;20.08;;;4.30;99.90;;;;;;5032884;28;20374;-78
2022/04/16 04:08:28;;;;;;;32.22;20.25;;;4.10;99.90;;;;;;5031102;28;20465;-78
2022/04/16 04:10:53;;;;;;;35.33;20.88;;;4.00;99.90;;;;;;5032943;28;20427;-78
2022/04/16 04:13:20;;;;;;;32.65;21.85;;;3.90;99.90;;;;;;5031193;28;20057;-80
2022/04/16 04:15:46;;;;;;;36.40;20.98;;;3.80;99.90;;;;;;5032763;28;20041;-77
2022/04/16 04:18:12;;;;;;;40.72;24.75;;;3.80;99.90;;;;;;5031292;28;20025;-79
2022/04/16 04:20:37;;;;;;;46.25;26.40;;;3.80;99.90;;;;;;5032772;28;20030;-80
2022/04/16 04:23:04;;;;;;;38.05;23.65;;;4.00;99.90;;;;;;5032648;28;20034;-78
2022/04/16 04:25:29;;;;;;;37.50;22.95;;;4.10;99.90;;;;;;5031639;28;20112;-77
2022/04/16 04:27:55;;;;;;;39.42;24.10;;;4.10;99.90;;;;;;5032022;28;20507;-77
2022/04/16 04:30:21;;;;;;;37.53;22.00;;;4.20;99.90;;;;;;5030968;28;20068;-78
2022/04/16 04:32:47;;;;;;;38.28;24.02;;;4.30;99.90;;;;;;5032167;28;20029;-80
2022/04/16 04:35:13;;;;;;;37.13;23.13;;;4.30;99.90;;;;;;5033371;28;20392;-79
2022/04/16 04:37:38;;;;;;;35.50;21.40;;;4.20;99.90;;;;;;5031491;28;20083;-78
2022/04/16 04:40:05;;;;;;;36.55;23.05;;;4.10;99.90;;;;;;5029826;28;20029;-77
2022/04/16 04:42:35;;;;;;;40.17;24.20;;;4.00;99.90;;;;;;5029945;28;20057;-77
2022/04/16 04:45:11;;;;;;;42.13;26.00;;;4.00;99.90;;;;;;5028251;28;20060;-79
2022/04/16 04:47:37;;;;;;;45.17;25.40;;;4.10;99.90;;;;;;5015169;28;20383;-79
2022/04/16 04:50:04;;;;;;;47.00;25.33;;;4.10;99.90;;;;;;5011973;28;20091;-77
2022/04/16 04:52:30;;;;;;;42.97;26.30;;;4.10;99.90;;;;;;5012114;28;20064;-80
2022/04/16 04:55:00;;;;;;;39.70;25.20;;;4.10;99.90;;;;;;5010614;28;20030;-79
2022/04/16 04:57:27;;;;;;;44.08;26.35;;;4.10;99.90;;;;;;5011893;28;20029;-78
2022/04/16 04:59:53;;;;;;;48.25;28.30;;;4.00;99.90;;;;;;5011772;28;20053;-79
2022/04/16 05:02:19;;;;;;;46.15;27.42;;;4.00;99.90;;;;;;5012092;28;20018;-79
2022/04/16 05:04:45;;;;;;;47.55;28.02;;;4.10;99.90;;;;;;5010965;28;20473;-78
2022/04/16 05:07:11;;;;;;;45.78;27.83;;;4.20;99.90;;;;;;5014389;28;20026;-78
2022/04/16 05:09:37;;;;;;;46.28;27.90;;;4.20;99.90;;;;;;5014297;28;20025;-79
2022/04/16 05:12:04;;;;;;;47.50;28.52;;;4.30;99.90;;;;;;5014653;28;20489;-78
2022/04/16 05:14:30;;;;;;;41.13;25.80;;;4.50;99.90;;;;;;5015758;28;20022;-78
2022/04/16 05:16:55;;;;;;;41.55;25.00;;;4.60;99.90;;;;;;5015777;28;20131;-79
2022/04/16 05:19:21;;;;;;;48.42;28.95;;;4.80;99.90;;;;;;5015194;28;20053;-80
2022/04/16 05:21:47;;;;;;;49.42;28.50;;;4.90;99.90;;;;;;5015677;28;20033;-79
2022/04/16 05:24:12;;;;;;;50.50;28.33;;;5.00;99.90;;;;;;5014428;28;20022;-78
2022/04/16 05:26:38;;;;;;;47.90;26.77;;;5.10;99.90;;;;;;5014317;28;20029;-79
2022/04/16 05:29:05;;;;;;;51.97;28.05;;;5.20;99.90;;;;;;5013832;28;20029;-80
2022/04/16 05:31:30;;;;;;;43.08;27.70;;;5.30;99.90;;;;;;5015630;28;20061;-78
2022/04/16 05:36:41;;;;;;;51.00;30.52;;;5.60;99.90;;;;;;5015141;28;20064;-79
2022/04/16 05:39:07;;;;;;;42.25;26.40;;;5.70;99.90;;;;;;5015946;28;20383;-78
2022/04/16 05:41:36;;;;;;;48.78;28.60;;;5.90;99.90;;;;;;5015327;28;20490;-79
2022/04/16 05:44:02;;;;;;;52.85;30.75;;;6.00;99.90;;;;;;5015751;28;20037;-79
2022/04/16 05:46:28;;;;;;;46.38;28.33;;;6.10;99.90;;;;;;5034016;28;20113;-78
2022/04/16 05:48:54;;;;;;;45.50;29.63;;;6.20;99.90;;;;;;5034819;28;20049;-77
2022/04/16 05:51:21;;;;;;;45.88;28.85;;;6.30;99.90;;;;;;5033618;28;20227;-79
2022/04/16 05:53:47;;;;;;;46.15;27.50;;;6.40;99.90;;;;;;5035068;28;20469;-78
2022/04/16 05:56:14;;;;;;;42.67;26.35;;;6.50;99.90;;;;;;5035832;28;20033;-79
2022/04/16 05:58:40;;;;;;;43.25;27.55;;;6.60;99.90;;;;;;5042460;28;20040;-80
2022/04/16 06:01:10;;;;;;;44.33;28.25;;;6.70;99.90;;;;;;5057515;28;20009;-77
2022/04/16 06:03:36;;;;;;;45.10;28.35;;;7.00;99.90;;;;;;5047768;28;20037;-78
2022/04/16 06:06:03;;;;;;;44.25;27.83;;;7.30;99.90;;;;;;5042935;28;20030;-78
2022/04/16 06:08:29;;;;;;;38.00;25.60;;;7.60;99.90;;;;;;5034427;28;20045;-81
2022/04/16 06:10:55;;;;;;;38.05;24.33;;;7.80;99.90;;;;;;5035896;28;20021;-79
2022/04/16 06:13:20;;;;;;;32.40;22.42;;;8.10;99.90;;;;;;5033954;28;20025;-80
2022/04/16 06:15:46;;;;;;;35.28;22.98;;;8.20;99.90;;;;;;5035151;28;20037;-80
2022/04/16 06:18:11;;;;;;;34.50;21.60;;;8.50;99.90;;;;;;5033215;28;20151;-77
2022/04/16 06:20:37;;;;;;;30.25;21.92;;;8.70;99.90;;;;;;5034855;28;20485;-78
2022/04/16 06:23:04;;;;;;;28.48;18.85;;;8.80;99.90;;;;;;5033010;28;20386;-80
2022/04/16 06:25:30;;;;;;;29.65;20.55;;;8.90;99.90;;;;;;5034165;28;20037;-77
2022/04/16 06:27:56;;;;;;;26.92;18.80;;;9.00;99.90;;;;;;5032492;28;20436;-77
2022/04/16 06:30:22;;;;;;;29.75;19.25;;;8.90;99.90;;;;;;5034120;28;20036;-79
2022/04/16 06:32:47;;;;;;;29.88;20.25;;;9.00;99.90;;;;;;5033063;28;20029;-79
2022/04/16 06:35:13;;;;;;;28.95;18.15;;;9.10;99.90;;;;;;5034461;28;20022;-78
2022/04/16 06:37:41;;;;;;;29.08;19.70;;;9.30;99.90;;;;;;5033099;28;20053;-78
2022/04/16 06:40:08;;;;;;;29.58;18.40;;;9.30;99.90;;;;;;5034362;28;20036;-79
2022/04/16 06:42:34;;;;;;;23.15;17.10;;;9.40;99.90;;;;;;5035528;28;20022;-76
2022/04/16 06:45:00;;;;;;;23.83;16.27;;;9.60;99.90;;;;;;5026525;28;20030;-78
2022/04/16 06:47:25;;;;;;;26.85;17.65;;;9.70;99.90;;;;;;5014298;28;20057;-79
2022/04/16 06:49:51;;;;;;;24.35;16.70;;;9.70;99.90;;;;;;5014385;28;20049;-79
2022/04/16 06:52:19;;;;;;;24.30;16.23;;;9.70;99.90;;;;;;5014170;28;20058;-77
2022/04/16 06:54:46;;;;;;;21.70;15.30;;;9.80;99.90;;;;;;5012701;28;20026;-77
2022/04/16 06:57:12;;;;;;;25.58;16.38;;;9.80;99.90;;;;;;5014101;28;20033;-78
2022/04/16 06:59:38;;;;;;;23.35;15.13;;;9.90;99.90;;;;;;5012737;28;20157;-78
2022/04/16 07:02:10;;;;;;;25.48;15.60;;;9.80;99.90;;;;;;5014695;28;20502;-79
2022/04/16 07:04:36;;;;;;;23.33;15.52;;;10.00;99.90;;;;;;5014197;28;20157;-80
2022/04/16 07:07:02;;;;;;;25.85;15.32;;;10.00;99.90;;;;;;5012656;28;20057;-78
2022/04/16 07:09:28;;;;;;;21.15;13.98;;;10.20;99.90;;;;;;5014300;28;20022;-78
2022/04/16 07:11:54;;;;;;;24.83;14.68;;;10.20;99.90;;;;;;5013120;28;20072;-77
2022/04/16 07:14:20;;;;;;;24.23;15.38;;;10.20;99.90;;;;;;5015076;28;20362;-78
2022/04/16 07:16:46;;;;;;;22.63;14.73;;;10.50;99.90;;;;;;5013216;28;20445;-78
2022/04/16 07:19:12;;;;;;;23.48;14.90;;;10.80;99.90;;;;;;5013465;28;20021;-77
2022/04/16 07:21:38;;;;;;;21.48;14.43;;;11.00;99.90;;;;;;5013821;28;20048;-77
2022/04/16 07:24:04;;;;;;;21.75;14.25;;;11.30;99.90;;;;;;5013422;28;20040;-77
2022/04/16 07:26:30;;;;;;;22.35;15.05;;;11.50;99.90;;;;;;5012755;28;20029;-76
2022/04/16 07:28:56;;;;;;;25.20;15.70;;;11.40;99.90;;;;;;5012537;28;20018;-78
2022/04/16 07:31:22;;;;;;;23.83;15.82;;;11.10;99.90;;;;;;5014430;28;20022;-78
2022/04/16 07:33:47;;;;;;;20.10;14.98;;;11.30;99.90;;;;;;5014375;28;20428;-77
2022/04/16 07:36:13;;;;;;;20.88;15.05;;;11.40;99.90;;;;;;5013844;28;20026;-78
2022/04/16 07:38:38;;;;;;;23.15;15.45;;;11.70;99.90;;;;;;5013031;28;20312;-77
2022/04/16 07:41:04;;;;;;;24.88;15.15;;;12.00;99.90;;;;;;5014219;28;20037;-77
2022/04/16 07:43:30;;;;;;;23.30;14.85;;;12.20;99.90;;;;;;5013745;28;20588;-78
2022/04/16 07:45:56;;;;;;;21.58;14.57;;;12.40;99.90;;;;;;5029351;28;20421;-79
2022/04/16 07:48:22;;;;;;;24.08;16.05;;;12.40;99.90;;;;;;5033363;28;20176;-78
2022/04/16 07:50:48;;;;;;;23.27;13.68;;;12.20;99.90;;;;;;5034001;28;20129;-78
2022/04/16 07:53:13;;;;;;;19.50;13.57;;;12.40;99.90;;;;;;5033641;28;20081;-78
2022/04/16 07:55:39;;;;;;;19.75;13.45;;;12.70;99.90;;;;;;5034551;28;20163;-77
2022/04/16 07:58:05;;;;;;;18.83;13.73;;;13.00;99.90;;;;;;5035737;28;20036;-80
2022/04/16 08:00:30;;;;;;;22.42;14.75;;;13.30;99.90;;;;;;5033459;28;20041;-79
2022/04/16 08:02:56;;;;;;;20.50;13.50;;;13.60;99.90;;;;;;5034309;28;20108;-78
2022/04/16 08:05:21;;;;;;;18.92;12.98;;;13.60;99.90;;;;;;5033482;28;20455;-79
2022/04/16 08:07:47;;;;;;;18.05;12.32;;;13.60;99.90;;;;;;5034078;28;20033;-78
2022/04/16 08:10:13;;;;;;;17.65;12.57;;;13.80;99.90;;;;;;5034106;28;20029;-78
2022/04/16 08:12:39;;;;;;;17.17;12.23;;;13.80;99.90;;;;;;5033942;28;20064;-79
2022/04/16 08:15:06;;;;;;;17.67;12.02;;;13.60;99.90;;;;;;5033778;28;20392;-80
2022/04/16 08:17:32;;;;;;;17.27;12.48;;;13.70;99.90;;;;;;5033063;28;20026;-79
2022/04/16 08:19:57;;;;;;;16.65;11.95;;;14.00;99.90;;;;;;5034681;28;20102;-79
2022/04/16 08:22:23;;;;;;;17.08;12.05;;;14.40;99.90;;;;;;5034807;28;20097;-81
2022/04/16 08:27:34;;;;;;;17.42;11.90;;;14.60;99.90;;;;;;5051901;28;20032;-78
2022/04/16 08:29:59;;;;;;;16.40;11.88;;;14.60;99.90;;;;;;5053281;28;20037;-79
2022/04/16 08:32:25;;;;;;;16.35;11.73;;;14.20;99.90;;;;;;5054011;28;20029;-79
2022/04/16 08:34:51;;;;;;;17.83;12.10;;;14.00;99.90;;;;;;5049970;28;20053;-80
2022/04/16 08:37:16;;;;;;;17.17;11.55;;;13.70;99.90;;;;;;5049707;28;20133;-78
2022/04/16 08:39:42;;;;;;;20.02;12.57;;;13.50;99.90;;;;;;5033148;28;20026;-78
2022/04/16 08:42:09;;;;;;;16.77;11.77;;;13.80;99.90;;;;;;5035838;28;20096;-78
2022/04/16 08:44:37;;;;;;;15.68;10.45;;;14.40;99.90;;;;;;5032776;28;20029;-77
2022/04/16 08:47:05;;;;;;;14.23;9.70;;;14.50;99.90;;;;;;5016394;28;20318;-79
2022/04/16 08:49:31;;;;;;;13.55;9.85;;;13.90;99.90;;;;;;5016871;28;20485;-80
2022/04/16 08:51:57;;;;;;;15.25;10.30;;;14.30;99.90;;;;;;5016823;28;20092;-80
2022/04/16 08:54:23;;;;;;;14.40;10.02;;;14.80;99.90;;;;;;5017255;28;20552;-79
2022/04/16 08:56:49;;;;;;;16.25;10.18;;;15.00;98.50;;;;;;5017271;28;20032;-79
2022/04/16 08:59:14;;;;;;;14.15;9.80;;;14.70;97.60;;;;;;5017020;28;20457;-77
2022/04/16 09:01:40;;;;;;;14.15;10.00;;;14.40;99.40;;;;;;5016166;28;20084;-78
2022/04/16 09:04:06;;;;;;;14.50;8.90;;;14.40;98.40;;;;;;5016888;28;20042;-76
2022/04/16 09:06:31;;;;;;;11.98;8.00;;;14.80;98.10;;;;;;5017522;28;20030;-79
2022/04/16 09:09:07;;;;;;;11.05;7.60;;;15.30;94.30;;;;;;5016580;28;20466;-79
2022/04/16 09:11:33;;;;;;;;;;;15.50;91.10;;;;;;5015518;28;20081;-79
2022/04/16 09:13:58;;;;;;;11.40;7.57;;;15.30;90.90;;;;;;5016065;28;19948;-78
2022/04/16 09:16:24;;;;;;;11.48;7.10;;;15.60;89.60;;;;;;5016223;28;20014;-77
2022/04/16 09:18:54;;;;;;;11.57;6.93;;;15.60;85.70;;;;;;5017678;28;20029;-82
2022/04/16 09:21:28;;;;;;;8.93;6.63;;;15.50;85.40;;;;;;5016475;28;20060;-79
2022/04/16 09:24:02;;;;;;;9.95;6.63;;;15.40;85.00;;;;;;5016285;28;20026;-79
2022/04/16 09:26:39;;;;;;;9.77;6.43;;;15.70;85.70;;;;;;5016757;28;20030;-79
2022/04/16 09:29:09;;;;;;;10.35;7.18;;;15.90;81.70;;;;;;5017808;28;20022;-77
2022/04/16 09:31:38;;;;;;;9.65;6.65;;;15.70;84.70;;;;;;5017089;28;20057;-81
2022/04/16 09:34:04;;;;;;;8.40;6.03;;;15.50;83.00;;;;;;5018229;28;20474;-82
2022/04/16 09:36:30;;;;;;;9.25;6.20;;;15.80;83.30;;;;;;5018525;28;20045;-82
2022/04/16 09:39:04;;;;;;;7.53;5.40;;;15.70;83.00;;;;;;5019949;28;20025;-80
2022/04/16 09:41:38;;;;;;;9.10;6.50;;;16.00;81.70;;;;;;5019223;28;20053;-79
2022/04/16 09:44:15;;;;;;;9.55;5.90;;;16.30;81.00;;;;;;5016171;28;20029;-79
2022/04/16 09:46:44;;;;;;;9.55;6.00;;;16.00;79.10;;;;;;4995229;28;20412;-80
2022/04/16 09:49:12;;;;;;;9.98;6.90;;;15.90;78.20;;;;;;4999052;28;20033;-81
2022/04/16 09:51:40;;;;;;;9.15;6.28;;;16.10;80.70;;;;;;4998150;28;20019;-79
2022/04/16 09:54:06;;;;;;;10.90;6.20;;;16.30;78.70;;;;;;4999617;28;20022;-78
2022/04/16 09:56:46;;;;;;;7.97;4.93;;;16.30;76.50;;;;;;4998255;28;20443;-77
2022/04/16 09:59:15;;;;;;;8.18;5.85;;;16.20;75.20;;;;;;4996470;28;20037;-78
2022/04/16 10:01:48;;;;;;;7.35;6.03;;;16.00;79.00;;;;;;4997367;28;20153;-77
2022/04/16 10:04:18;;;;;;;9.57;6.13;;;16.20;75.60;;;;;;4996321;28;20033;-76
2022/04/16 10:06:45;;;;;;;9.30;6.13;;;16.10;73.80;;;;;;4997017;28;20385;-77
2022/04/16 10:09:22;;;;;;;8.20;5.95;;;16.10;74.80;;;;;;4996543;28;20018;-80
2022/04/16 10:15:04;;;;;;;9.82;6.63;;;16.60;75.10;;;;;;4997228;28;20029;-77
2022/04/16 10:17:49;;;;;;;7.57;5.13;;;16.70;72.20;;;;;;4996279;28;20025;-78
2022/04/16 10:20:19;;;;;;;7.55;5.10;;;16.40;73.70;;;;;;5003545;28;20057;-77
2022/04/16 10:22:56;;;;;;;8.68;4.93;;;16.70;71.90;;;;;;5017854;28;20022;-75
2022/04/16 10:25:39;;;;;;;9.20;4.85;;;16.80;70.00;;;;;;5015429;28;20034;-78
2022/04/16 10:28:11;;;;;;;6.65;4.18;;;16.70;70.50;;;;;;5003929;28;20030;-76
2022/04/16 10:30:36;;;;;;;7.28;4.40;;;17.10;68.80;;;;;;4996754;28;20440;-76
2022/04/16 10:33:15;;;;;;;8.15;4.50;;;17.00;67.40;;;;;;4996486;28;20042;-79
2022/04/16 10:35:51;;;;;;;6.32;5.05;;;16.80;65.50;;;;;;4995688;28;20049;-78
2022/04/16 10:38:23;;;;;;;8.27;4.18;;;16.90;64.20;;;;;;4997220;28;20038;-78
2022/04/16 10:41:00;;;;;;;5.95;4.50;;;16.80;63.90;;;;;;4997082;28;20022;-77
2022/04/16 10:43:31;;;;;;;8.13;4.57;;;16.40;65.50;;;;;;4997274;28;20049;-78
2022/04/16 10:46:08;;;;;;;7.97;5.00;;;16.60;65.50;;;;;;5025633;28;20017;-76
2022/04/16 10:48:38;;;;;;;9.48;5.15;;;16.90;62.60;;;;;;5037833;28;20540;-77
2022/04/16 10:51:06;;;;;;;7.90;4.68;;;16.70;61.90;;;;;;5037106;28;20025;-76
2022/04/16 10:53:41;;;;;;;5.28;4.15;;;16.40;65.00;;;;;;5036199;28;20025;-77
2022/04/16 10:56:13;;;;;;;5.22;3.92;;;16.20;64.70;;;;;;5037973;28;20025;-76
2022/04/16 10:58:45;;;;;;;6.95;4.35;;;16.20;63.10;;;;;;5040614;28;20032;-78
2022/04/16 11:01:12;;;;;;;5.95;3.83;;;16.30;63.20;;;;;;5036703;28;20033;-79
2022/04/16 11:03:48;;;;;;;5.63;3.47;;;16.40;60.30;;;;;;5037987;28;20025;-76
2022/04/16 11:06:16;;;;;;;6.25;4.10;;;16.00;60.90;;;;;;5038345;28;20497;-77
2022/04/16 11:08:42;;;;;;;5.57;3.95;;;16.00;62.70;;;;;;5035476;28;20076;-76
2022/04/16 11:11:09;;;;;;;5.95;3.53;;;16.20;62.20;;;;;;5034056;28;20074;-79
2022/04/16 11:13:40;;;;;;;5.40;3.75;;;16.30;60.50;;;;;;5032678;28;20021;-78
2022/04/16 11:16:06;;;;;;;5.80;3.63;;;16.10;59.40;;;;;;5034995;28;20053;-78
2022/04/16 11:18:43;;;;;;;5.05;3.83;;;15.90;60.00;;;;;;5037597;28;20583;-76
2022/04/16 11:21:11;;;;;;;6.13;3.38;;;15.90;62.50;;;;;;5038142;28;20029;-78
2022/04/16 11:23:48;;;;;;;5.93;3.00;;;16.20;61.50;;;;;;5038902;28;20056;-77
2022/04/16 11:34:41;;;;;;;5.78;3.03;;;16.40;58.30;;;;;;5036616;28;20051;-77
2022/04/16 11:37:06;;;;;;;5.40;2.50;;;16.60;57.30;;;;;;5036774;28;20449;-76
2022/04/16 11:39:34;;;;;;;4.65;3.10;;;16.80;57.30;;;;;;5035741;28;20430;-76
2022/04/16 11:42:10;;;;;;;4.40;3.05;;;16.50;57.20;;;;;;5038521;28;20105;-77
2022/04/16 11:44:43;;;;;;;5.45;2.60;;;16.20;57.00;;;;;;5032148;28;20405;-77
2022/04/16 11:47:12;;;;;;;4.18;2.50;;;16.50;57.10;;;;;;5017965;28;20041;-77
2022/04/16 11:49:43;;;;;;;5.13;2.90;;;16.60;56.70;;;;;;5015391;28;20029;-76
2022/04/16 11:52:10;;;;;;;5.25;2.33;;;16.70;56.00;;;;;;5017017;28;20050;-75
2022/04/16 11:54:36;;;;;;;5.72;2.92;;;16.90;56.00;;;;;;5014871;28;20100;-76
2022/04/16 11:57:01;;;;;;;3.45;2.40;;;17.00;54.50;;;;;;5015184;28;20053;-75
2022/04/16 11:59:28;;;;;;;3.67;2.50;;;16.80;53.50;;;;;;5013888;28;20028;-77
2022/04/16 12:02:04;;;;;;;5.25;2.92;;;16.40;54.20;;;;;;5013466;28;20021;-78
2022/04/16 12:04:41;;;;;;;5.57;2.60;;;16.20;56.70;;;;;;5013440;28;20029;-77
2022/04/16 12:07:25;;;;;;;5.88;2.53;;;16.30;57.70;;;;;;5013179;28;20671;-79
2022/04/16 12:09:50;;;;;;;3.17;2.10;;;16.90;54.80;;;;;;5015737;28;20050;-77
2022/04/16 12:12:22;;;;;;;4.43;2.20;;;17.10;54.30;;;;;;5020627;28;20367;-76
2022/04/16 12:14:54;;;;;;;2.95;2.08;;;17.50;54.10;;;;;;5017329;28;20021;-76
2022/04/16 12:17:29;;;;;;;4.47;1.85;;;17.30;52.80;;;;;;5012549;28;20470;-76
2022/04/16 12:20:01;;;;;;;4.47;1.98;;;16.80;52.90;;;;;;5014023;28;20022;-78
2022/04/16 12:22:27;;;;;;;3.40;1.70;;;16.80;52.30;;;;;;5014887;28;20037;-77
2022/04/16 12:24:52;;;;;;;3.42;1.58;;;16.80;52.80;;;;;;5013824;28;20022;-77
2022/04/16 12:27:25;;;;;;;2.58;1.63;;;16.80;51.10;;;;;;5016371;28;20437;-76
2022/04/16 12:29:54;;;;;;;2.15;1.65;;;16.70;50.70;;;;;;5014026;28;20036;-76
2022/04/16 12:32:25;;;;;;;2.38;1.55;;;17.00;51.10;;;;;;5015117;28;20042;-77
2022/04/16 12:34:51;;;;;;;2.65;1.38;;;16.70;51.00;;;;;;5013747;28;20014;-78
2022/04/16 12:37:17;;;;;;;4.28;1.45;;;16.60;50.20;;;;;;5015724;28;20393;-76
2022/04/16 12:39:42;;;;;;;3.17;1.63;;;16.70;49.60;;;;;;5016290;28;20042;-77
2022/04/16 12:42:09;;;;;;;1.98;1.65;;;17.00;48.60;;;;;;5015261;28;20018;-76
2022/04/16 12:44:35;;;;;;;3.30;1.42;;;17.30;49.00;;;;;;5019557;28;20045;-76
2022/04/16 12:47:00;;;;;;;2.50;1.33;;;17.30;48.10;;;;;;5034184;28;20048;-77
2022/04/16 12:49:26;;;;;;;3.10;1.30;;;17.30;48.80;;;;;;5036028;28;20021;-76
2022/04/16 12:51:51;;;;;;;3.33;1.20;;;17.30;47.90;;;;;;5034378;28;20060;-76
2022/04/16 12:54:17;;;;;;;3.17;1.50;;;17.10;49.00;;;;;;5033261;28;20025;-75
2022/04/16 12:56:43;;;;;;;3.03;1.10;;;17.00;48.00;;;;;;5032698;28;20033;-76
2022/04/16 12:59:09;;;;;;;2.38;0.95;;;17.10;48.80;;;;;;5032970;28;20022;-77
2022/04/16 13:01:35;;;;;;;1.80;1.25;;;17.10;47.30;;;;;;5033638;28;20152;-79
2022/04/16 13:04:01;;;;;;;2.63;1.17;;;17.00;47.40;;;;;;5032264;28;20033;-76
2022/04/16 13:06:27;;;;;;;1.58;1.10;;;16.90;48.00;;;;;;5033728;28;20033;-77